Time;durP1;ratioP1;P1;durP2;ratioP2;P2;SDS_P1;SDS_P2;PMS_P1;PMS_P2;Temp;Humidity;BMP_temperature;BMP_pressure;BME280_temperature;BME280_humidity;BME280_pressure;Samples;Min_cycle;Max_cycle;Signal;HPM_P1;HPM_P2
2021/12/23 06:14:03;;;;;;;5.60;4.80;;;-5.30;99.90;;;;;;6063288;22;20219;-70
2021/12/23 06:16:30;;;;;;;7.20;4.93;;;-5.30;99.90;;;;;;5093896;28;20587;-70
2021/12/23 06:18:57;;;;;;;6.43;5.20;;;-5.30;99.90;;;;;;5094190;28;20625;-70
2021/12/23 06:21:27;;;;;;;6.47;5.40;;;-5.30;99.90;;;;;;5093895;28;20748;-70
2021/12/23 06:23:54;;;;;;;6.60;4.85;;;-5.30;99.90;;;;;;5097098;28;20226;-69
2021/12/23 06:26:21;;;;;;;7.18;4.63;;;-5.30;99.90;;;;;;5114060;28;20599;-69
2021/12/23 06:28:48;;;;;;;8.95;5.47;;;-5.30;99.90;;;;;;5114939;28;20318;-71
2021/12/23 06:31:17;;;;;;;6.55;5.03;;;-5.30;99.90;;;;;;5114105;28;20679;-70
2021/12/23 06:33:43;;;;;;;6.85;5.13;;;-5.30;99.90;;;;;;5114263;28;20229;-70
2021/12/23 06:36:13;;;;;;;7.93;5.50;;;-5.30;99.90;;;;;;5114349;28;20201;-70
2021/12/23 06:38:40;;;;;;;6.43;4.88;;;-5.30;99.90;;;;;;5114293;28;20218;-70
2021/12/23 06:41:07;;;;;;;8.55;5.35;;;-5.30;99.90;;;;;;5113948;28;20293;-70
2021/12/23 06:43:34;;;;;;;6.50;4.57;;;-5.30;99.90;;;;;;5113870;28;20205;-70
2021/12/23 06:46:02;;;;;;;8.18;5.32;;;-5.30;99.90;;;;;;5113913;28;20669;-70
2021/12/23 06:48:31;;;;;;;7.38;5.15;;;-5.30;99.90;;;;;;5114336;28;20277;-71
2021/12/23 06:50:59;;;;;;;5.68;4.85;;;-5.30;99.90;;;;;;5113842;28;20204;-70
2021/12/23 06:53:27;;;;;;;6.80;4.80;;;-5.20;99.90;;;;;;5113885;28;20205;-70
2021/12/23 06:55:55;;;;;;;8.45;4.80;;;-5.20;99.90;;;;;;5114053;28;20268;-70
2021/12/23 06:58:23;;;;;;;7.22;4.80;;;-5.10;99.90;;;;;;5114636;28;20215;-70
2021/12/23 07:00:50;;;;;;;8.77;5.47;;;-5.10;99.90;;;;;;5114110;28;20226;-70
2021/12/23 07:03:17;;;;;;;7.90;5.28;;;-5.10;99.90;;;;;;5113771;28;20274;-70
2021/12/23 07:05:45;;;;;;;7.80;5.25;;;-5.00;99.90;;;;;;5114155;28;20282;-70
2021/12/23 07:08:25;;;;;;;8.52;4.93;;;-5.00;99.90;;;;;;5115310;28;20201;-69
2021/12/23 07:10:52;;;;;;;5.97;4.78;;;-4.90;99.90;;;;;;5117749;28;20193;-67
2021/12/23 07:13:19;;;;;;;9.60;6.07;;;-4.90;99.90;;;;;;5116789;28;20657;-67
2021/12/23 07:15:47;;;;;;;7.47;4.63;;;-4.80;99.90;;;;;;5117210;28;20250;-69
2021/12/23 07:18:14;;;;;;;6.38;4.97;;;-4.80;99.90;;;;;;5116226;28;20222;-69
2021/12/23 07:20:42;;;;;;;7.93;5.97;;;-4.80;99.90;;;;;;5117037;28;20213;-70
2021/12/23 07:23:10;;;;;;;8.48;5.45;;;-4.70;99.90;;;;;;5116531;28;20220;-70
2021/12/23 07:25:38;;;;;;;8.88;5.72;;;-4.60;99.90;;;;;;5116659;28;20230;-66
2021/12/23 07:28:05;;;;;;;7.90;5.38;;;-4.60;99.90;;;;;;5117645;28;20237;-69
2021/12/23 07:30:32;;;;;;;11.32;6.25;;;-4.50;99.90;;;;;;5116820;28;20666;-69
2021/12/23 07:33:00;;;;;;;9.63;6.50;;;-4.40;99.90;;;;;;5117353;28;20661;-67
2021/12/23 07:35:27;;;;;;;10.35;6.63;;;-4.40;99.90;;;;;;5117077;28;20223;-66
2021/12/23 07:37:57;;;;;;;10.15;6.30;;;-4.30;99.90;;;;;;5118995;28;20264;-67
2021/12/23 07:40:25;;;;;;;14.70;6.93;;;-4.30;99.90;;;;;;5121264;28;20202;-67
2021/12/23 07:42:56;;;;;;;11.82;6.68;;;-4.20;99.90;;;;;;5121804;28;20226;-67
2021/12/23 07:45:25;;;;;;;11.98;6.00;;;-4.10;99.90;;;;;;5120142;28;20277;-67
2021/12/23 07:47:52;;;;;;;10.88;6.53;;;-4.00;99.90;;;;;;5117899;28;20226;-67
2021/12/23 07:50:19;;;;;;;16.13;7.80;;;-4.00;99.90;;;;;;5117234;28;20201;-67
2021/12/23 07:52:46;;;;;;;16.00;7.85;;;-3.90;99.90;;;;;;5116916;28;20200;-67
2021/12/23 07:55:14;;;;;;;13.88;7.05;;;-3.90;99.90;;;;;;5117187;28;20230;-67
2021/12/23 07:57:42;;;;;;;17.08;7.80;;;-3.90;99.90;;;;;;5117384;28;20245;-67
2021/12/23 08:00:11;;;;;;;14.05;7.00;;;-3.90;99.90;;;;;;5117573;28;20195;-66
2021/12/23 08:02:38;;;;;;;15.07;7.07;;;-3.80;99.90;;;;;;5116838;28;20643;-66
2021/12/23 08:05:05;;;;;;;13.30;7.60;;;-3.70;99.90;;;;;;5116677;28;20722;-67
2021/12/23 08:07:32;;;;;;;15.55;7.40;;;-3.70;99.90;;;;;;5117128;28;20196;-67
2021/12/23 08:09:59;;;;;;;14.10;6.78;;;-3.70;99.90;;;;;;5117076;28;20238;-67
2021/12/23 08:12:26;;;;;;;12.05;7.68;;;-3.60;99.90;;;;;;5116932;28;20282;-67
2021/12/23 08:14:54;;;;;;;13.90;8.10;;;-3.60;99.90;;;;;;5116701;28;20318;-67
2021/12/23 08:17:21;;;;;;;13.82;7.15;;;-3.50;99.90;;;;;;5116818;28;20217;-67
2021/12/23 08:19:48;;;;;;;10.60;6.97;;;-3.60;99.90;;;;;;5117156;28;20229;-69
2021/12/23 08:22:15;;;;;;;15.70;8.27;;;-3.50;99.90;;;;;;5116876;28;20286;-70
2021/12/23 08:24:42;;;;;;;10.40;6.35;;;-3.50;99.90;;;;;;5116464;28;20249;-70
2021/12/23 08:27:09;;;;;;;11.23;6.88;;;-3.40;99.90;;;;;;5117377;28;20223;-69
2021/12/23 08:29:37;;;;;;;16.25;9.00;;;-3.30;99.90;;;;;;5116594;28;20198;-69
2021/12/23 08:32:07;;;;;;;13.77;7.55;;;-3.20;99.90;;;;;;5116377;28;20248;-69
2021/12/23 08:34:36;;;;;;;12.13;7.65;;;-3.20;99.90;;;;;;5116150;28;20592;-69
2021/12/23 08:37:06;;;;;;;12.07;6.78;;;-3.20;99.90;;;;;;5116251;28;20339;-69
2021/12/23 08:39:34;;;;;;;15.18;7.70;;;-3.10;99.90;;;;;;5116698;28;20202;-69
2021/12/23 08:42:01;;;;;;;12.80;7.57;;;-3.00;99.90;;;;;;5116471;28;20248;-71
2021/12/23 08:44:28;;;;;;;11.25;6.70;;;-2.90;99.90;;;;;;5116755;28;20257;-71
2021/12/23 08:46:55;;;;;;;14.00;6.90;;;-2.80;99.90;;;;;;5115832;28;20679;-71
2021/12/23 08:49:23;;;;;;;11.57;7.03;;;-2.70;99.90;;;;;;5116278;28;20222;-71
2021/12/23 08:51:50;;;;;;;14.88;8.32;;;-2.50;99.90;;;;;;5115948;28;20202;-71
2021/12/23 08:54:17;;;;;;;17.88;9.90;;;-2.40;99.90;;;;;;5115806;28;20219;-72
2021/12/23 08:56:44;;;;;;;17.48;10.27;;;-2.40;99.90;;;;;;5116286;28;20285;-72
2021/12/23 08:59:12;;;;;;;20.23;10.25;;;-2.30;99.90;;;;;;5116008;28;20223;-71
2021/12/23 09:01:40;;;;;;;24.50;11.52;;;-2.20;99.90;;;;;;5116177;28;20238;-72
2021/12/23 09:04:07;;;;;;;31.77;16.70;;;-2.20;99.90;;;;;;5116352;28;20223;-71
2021/12/23 09:06:36;;;;;;;29.15;13.63;;;-2.20;99.90;;;;;;5116547;28;20230;-70
2021/12/23 09:09:04;;;;;;;28.73;13.63;;;-2.10;99.90;;;;;;5117257;28;20378;-68
2021/12/23 09:11:32;;;;;;;24.88;12.93;;;-2.10;99.90;;;;;;5117331;28;20202;-68
2021/12/23 09:13:59;;;;;;;23.08;12.38;;;-2.00;99.90;;;;;;5116453;28;20570;-70
2021/12/23 09:16:26;;;;;;;27.38;14.02;;;-2.00;99.90;;;;;;5115939;28;20681;-70
2021/12/23 09:18:53;;;;;;;22.42;12.52;;;-2.00;99.90;;;;;;5115874;28;20215;-71
2021/12/23 09:21:20;;;;;;;21.85;11.93;;;-2.00;99.90;;;;;;5116428;28;20201;-70
2021/12/23 09:23:48;;;;;;;21.05;11.43;;;-2.00;99.90;;;;;;5117287;28;20278;-68
2021/12/23 09:26:15;;;;;;;20.02;10.27;;;-1.90;99.90;;;;;;5117160;28;20573;-68
2021/12/23 09:28:55;;;;;;;18.50;11.30;;;-1.90;99.90;;;;;;5117283;28;20281;-68
2021/12/23 09:34:08;;;;;;;23.05;11.43;;;-1.90;99.90;;;;;;5116561;28;20221;-70
2021/12/23 09:36:35;;;;;;;21.33;11.43;;;-1.90;99.90;;;;;;5116261;28;20203;-68
2021/12/23 09:39:06;;;;;;;27.67;15.35;;;-1.90;99.90;;;;;;5115972;28;20306;-73
2021/12/23 09:41:34;;;;;;;27.38;13.88;;;-1.90;99.90;;;;;;5115589;28;20229;-68
2021/12/23 09:44:02;;;;;;;26.30;13.68;;;-1.90;99.90;;;;;;5115963;28;20305;-68
2021/12/23 09:46:29;;;;;;;23.73;12.90;;;-1.90;99.90;;;;;;5116025;28;20199;-68
2021/12/23 09:48:56;;;;;;;22.60;12.60;;;-1.80;99.90;;;;;;5115405;28;20203;-67
2021/12/23 09:51:24;;;;;;;23.42;12.65;;;-1.70;99.90;;;;;;5115578;28;20253;-66
2021/12/23 09:53:57;;;;;;;22.52;11.95;;;-1.60;99.90;;;;;;5115119;28;20198;-68
2021/12/23 09:56:26;;;;;;;20.35;10.57;;;-1.50;99.90;;;;;;5114766;28;20566;-67
2021/12/23 09:58:56;;;;;;;15.10;9.63;;;-1.40;99.90;;;;;;5114478;28;20311;-66
2021/12/23 10:01:23;;;;;;;18.13;9.98;;;-1.30;99.90;;;;;;5115228;28;20210;-66
2021/12/23 10:03:50;;;;;;;22.85;11.60;;;-1.20;99.90;;;;;;5114878;28;20294;-66
2021/12/23 10:06:17;;;;;;;18.30;10.85;;;-1.20;99.90;;;;;;5115624;28;20201;-67
2021/12/23 10:08:45;;;;;;;23.95;12.63;;;-1.20;99.90;;;;;;5116111;28;20230;-66
2021/12/23 10:11:21;;;;;;;27.75;13.88;;;-1.20;99.90;;;;;;5116274;28;20183;-69
2021/12/23 10:30:34;;;;;;;21.08;11.48;;;-0.90;99.90;;;;;;5114217;28;20186;-68
2021/12/23 10:38:38;;;;;;;20.55;12.68;;;-0.70;99.90;;;;;;5118771;28;20298;-68
2021/12/23 10:41:09;;;;;;;24.67;12.73;;;-0.70;99.90;;;;;;5115555;28;20206;-68
2021/12/23 10:43:40;;;;;;;20.77;12.43;;;-0.60;99.90;;;;;;5115690;28;20193;-68
2021/12/23 10:46:12;;;;;;;22.88;12.73;;;-0.60;99.90;;;;;;5116224;28;20193;-67
2021/12/23 10:48:48;;;;;;;24.85;12.60;;;-0.60;99.90;;;;;;5123807;28;20266;-68
2021/12/23 10:51:19;;;;;;;26.02;13.85;;;-0.50;99.90;;;;;;5122953;28;20202;-66
2021/12/23 10:53:54;;;;;;;22.40;12.68;;;-0.50;99.90;;;;;;5115046;28;20236;-66
2021/12/23 10:59:12;;;;;;;20.10;11.00;;;-0.50;99.90;;;;;;5121848;28;20281;-66
2021/12/23 11:02:05;;;;;;;19.05;11.88;;;-0.50;99.90;;;;;;5120874;28;20187;-66
2021/12/23 11:04:37;;;;;;;16.60;10.75;;;-0.40;99.90;;;;;;5114299;28;20228;-69
2021/12/23 11:07:13;;;;;;;21.35;11.23;;;-0.30;99.90;;;;;;5113826;28;20191;-70
2021/12/23 11:10:11;;;;;;;19.02;11.18;;;-0.30;99.90;;;;;;5114295;28;20186;-69
2021/12/23 11:38:13;;;;;;;18.70;10.63;;;0.60;99.90;;;;;;5078747;28;20731;-68
2021/12/23 11:41:00;;;;;;;21.35;11.27;;;0.60;99.90;;;;;;5117783;28;20198;-68
2021/12/23 11:43:32;;;;;;;19.13;11.43;;;0.60;99.90;;;;;;5117491;28;20189;-68
2021/12/23 11:46:00;;;;;;;21.25;11.60;;;0.60;99.90;;;;;;5117832;28;20187;-71
2021/12/23 11:48:27;;;;;;;16.98;10.13;;;0.60;99.90;;;;;;5117727;28;20195;-70
2021/12/23 11:51:06;;;;;;;16.42;10.60;;;0.60;99.90;;;;;;5117772;28;20290;-69
2021/12/23 11:53:34;;;;;;;17.92;10.73;;;0.70;99.90;;;;;;5117541;28;20186;-68
2021/12/23 11:56:04;;;;;;;16.95;10.10;;;0.70;99.90;;;;;;5117586;28;20603;-67
2021/12/23 11:58:31;;;;;;;13.88;9.40;;;0.80;99.90;;;;;;5121494;28;20257;-68
2021/12/23 12:01:06;;;;;;;26.80;15.07;;;0.90;99.90;;;;;;5129284;28;20281;-68
2021/12/23 12:03:39;;;;;;;24.10;13.52;;;0.90;99.90;;;;;;5126833;28;20242;-67
2021/12/23 12:06:17;;;;;;;23.60;12.98;;;0.90;99.90;;;;;;5126224;28;20247;-68
2021/12/23 12:08:45;;;;;;;19.33;11.57;;;0.90;99.90;;;;;;5122264;28;20267;-68
2021/12/23 12:11:18;;;;;;;28.55;15.55;;;0.90;99.90;;;;;;5117350;28;20301;-69
2021/12/23 12:13:45;;;;;;;28.73;15.57;;;0.90;99.90;;;;;;5118121;28;20202;-69
2021/12/23 12:16:32;;;;;;;25.25;14.30;;;0.90;99.90;;;;;;5124290;28;20298;-69
2021/12/23 12:19:00;;;;;;;24.13;12.75;;;1.00;99.90;;;;;;5122687;28;20205;-68
2021/12/23 12:21:31;;;;;;;22.85;12.82;;;1.00;99.90;;;;;;5122035;28;20262;-68
2021/12/23 12:24:16;;;;;;;22.45;12.30;;;1.20;99.90;;;;;;5123371;28;20240;-68
2021/12/23 12:26:55;;;;;;;22.88;13.20;;;1.20;99.90;;;;;;5122983;27;20234;-68
2021/12/23 12:29:27;;;;;;;20.58;12.40;;;1.20;99.90;;;;;;5118923;28;20222;-69
2021/12/23 12:31:54;;;;;;;19.85;11.63;;;1.30;99.90;;;;;;5116690;28;20262;-69
2021/12/23 12:34:31;;;;;;;17.50;10.50;;;1.40;99.90;;;;;;5116489;28;20257;-69
2021/12/23 12:37:01;;;;;;;17.80;9.82;;;1.50;99.90;;;;;;5116492;28;20274;-69
2021/12/23 12:39:33;;;;;;;15.52;9.57;;;1.70;99.90;;;;;;5116482;28;20250;-69
2021/12/23 12:42:04;;;;;;;17.60;10.20;;;1.80;99.90;;;;;;5116531;28;20187;-69
2021/12/23 12:44:43;;;;;;;15.93;10.05;;;1.80;99.90;;;;;;5116398;28;20314;-69
2021/12/23 12:47:15;;;;;;;17.63;10.30;;;1.90;99.90;;;;;;5116776;28;20198;-69
2021/12/23 12:49:47;;;;;;;19.83;10.50;;;1.90;99.90;;;;;;5116705;28;20195;-69
2021/12/23 12:52:22;;;;;;;21.02;11.63;;;1.80;99.90;;;;;;5116354;28;20190;-69
2021/12/23 12:54:57;;;;;;;19.33;11.02;;;1.80;99.90;;;;;;5116106;28;20224;-70
2021/12/23 12:57:31;;;;;;;20.58;11.38;;;1.80;99.90;;;;;;5116776;28;20190;-69
2021/12/23 13:00:00;;;;;;;19.40;11.60;;;1.80;99.90;;;;;;5116833;28;20282;-69
2021/12/23 13:02:30;;;;;;;20.25;11.00;;;1.80;99.90;;;;;;5121229;28;20741;-69
2021/12/23 13:05:04;;;;;;;14.57;9.80;;;1.70;99.90;;;;;;5120819;28;20256;-70
2021/12/23 13:07:35;;;;;;;16.48;9.95;;;1.70;99.90;;;;;;5118977;28;20274;-66
2021/12/23 13:10:10;;;;;;;16.83;9.82;;;1.70;99.90;;;;;;5116423;28;20226;-68
2021/12/23 13:12:46;;;;;;;15.95;9.82;;;1.80;99.90;;;;;;5116317;28;20189;-66
2021/12/23 13:15:19;;;;;;;13.57;8.50;;;1.80;99.90;;;;;;5116446;28;20589;-71
2021/12/23 13:17:53;;;;;;;12.82;8.35;;;1.90;99.90;;;;;;5117478;28;20190;-70
2021/12/23 13:20:36;;;;;;;14.98;8.77;;;1.90;99.90;;;;;;5115826;28;20233;-69
2021/12/23 13:23:08;;;;;;;14.98;9.27;;;1.90;99.90;;;;;;5116567;28;20191;-68
2021/12/23 13:25:44;;;;;;;14.88;8.55;;;1.90;99.90;;;;;;5115584;28;20261;-68
2021/12/23 13:28:11;;;;;;;15.13;9.40;;;1.90;99.90;;;;;;5115352;28;20663;-69
2021/12/23 13:30:39;;;;;;;13.90;9.05;;;1.90;99.90;;;;;;5115372;28;20191;-69
2021/12/23 13:33:08;;;;;;;13.95;7.95;;;1.90;99.90;;;;;;5115483;28;20237;-69
2021/12/23 13:35:36;;;;;;;13.90;9.05;;;2.00;99.90;;;;;;5114164;28;20234;-67
2021/12/23 13:38:04;;;;;;;11.48;7.57;;;1.90;99.90;;;;;;5115457;28;20623;-68
2021/12/23 13:40:35;;;;;;;10.18;7.05;;;2.00;99.90;;;;;;5115200;28;20585;-67
2021/12/23 13:43:02;;;;;;;8.57;6.03;;;1.90;99.90;;;;;;5115580;28;20270;-67
2021/12/23 13:45:30;;;;;;;11.65;7.30;;;1.90;99.90;;;;;;5115591;28;20273;-67
2021/12/23 13:47:59;;;;;;;10.80;7.22;;;1.90;99.90;;;;;;5115404;28;20267;-70
2021/12/23 13:50:28;;;;;;;10.13;6.75;;;1.90;99.90;;;;;;5115025;28;20206;-71
2021/12/23 13:52:56;;;;;;;10.27;6.95;;;1.90;99.90;;;;;;5115230;28;20198;-70
2021/12/23 13:55:26;;;;;;;10.80;6.55;;;1.90;99.90;;;;;;5115143;28;20309;-67
2021/12/23 13:57:56;;;;;;;9.55;6.55;;;1.90;99.90;;;;;;5114960;28;20178;-67
2021/12/23 14:00:27;;;;;;;8.65;6.38;;;1.90;99.90;;;;;;5115139;28;20222;-67
2021/12/23 14:03:03;;;;;;;12.40;6.57;;;1.90;99.90;;;;;;5115317;28;20603;-67
2021/12/23 14:05:31;;;;;;;11.23;7.65;;;1.90;99.90;;;;;;5115305;28;20258;-67
2021/12/23 14:07:58;;;;;;;12.68;7.97;;;1.90;99.90;;;;;;5114946;28;20291;-67
2021/12/23 14:10:29;;;;;;;18.63;10.60;;;1.80;99.90;;;;;;5114941;28;20205;-68
2021/12/23 14:12:58;;;;;;;15.95;9.75;;;1.80;99.90;;;;;;5114788;28;20621;-67
2021/12/23 14:15:27;;;;;;;13.77;8.98;;;1.80;99.90;;;;;;5114136;28;20258;-67
2021/12/23 14:18:00;;;;;;;16.27;9.30;;;1.70;99.90;;;;;;5114634;28;20568;-67
2021/12/23 14:23:16;;;;;;;12.65;8.07;;;1.80;99.90;;;;;;5114550;28;20600;-67
2021/12/23 14:25:54;;;;;;;14.50;8.68;;;1.70;99.90;;;;;;5114483;28;20223;-67
2021/12/23 14:28:25;;;;;;;12.65;7.97;;;1.80;99.90;;;;;;5114306;28;20694;-67
2021/12/23 14:30:56;;;;;;;12.32;7.85;;;1.80;99.90;;;;;;5114526;28;20191;-68
2021/12/23 14:33:26;;;;;;;11.35;7.63;;;1.80;99.90;;;;;;5114271;28;20193;-65
2021/12/23 14:36:00;;;;;;;9.90;6.80;;;1.80;99.90;;;;;;5113670;28;20721;-65
2021/12/23 14:38:29;;;;;;;6.65;5.63;;;1.80;99.90;;;;;;5114816;28;20220;-65
2021/12/23 14:41:17;;;;;;;7.90;5.90;;;1.90;99.90;;;;;;5114002;28;20254;-65
2021/12/23 14:43:54;;;;;;;7.82;5.65;;;1.80;99.90;;;;;;5113810;27;20736;-66
2021/12/23 14:46:23;;;;;;;7.45;5.28;;;1.80;99.90;;;;;;5113673;28;20273;-65
2021/12/23 14:49:21;;;;;;;5.53;4.70;;;1.80;99.90;;;;;;5114192;28;20223;-65
2021/12/23 14:51:50;;;;;;;6.28;5.05;;;1.80;99.90;;;;;;5114059;28;20183;-65
2021/12/23 14:54:22;;;;;;;5.55;4.85;;;1.80;99.90;;;;;;5113710;28;20732;-66
2021/12/23 14:57:04;;;;;;;5.72;4.68;;;1.80;99.90;;;;;;5114055;28;20634;-66
2021/12/23 14:59:44;;;;;;;5.28;4.63;;;1.80;99.90;;;;;;5114265;28;20213;-66
2021/12/23 15:02:11;;;;;;;6.72;4.55;;;1.80;99.90;;;;;;5114766;28;20183;-65
2021/12/23 15:05:07;;;;;;;5.50;4.22;;;1.80;99.90;;;;;;5114041;28;20232;-65
2021/12/23 15:07:51;;;;;;;4.93;4.32;;;1.80;99.90;;;;;;5114106;28;20214;-64
2021/12/23 15:10:35;;;;;;;6.18;4.60;;;1.80;99.90;;;;;;5113664;28;20175;-64
2021/12/23 15:13:15;;;;;;;5.18;4.55;;;1.90;99.90;;;;;;5114210;28;20278;-65
2021/12/23 15:15:42;;;;;;;5.88;4.78;;;1.90;99.90;;;;;;5113820;28;20235;-65
2021/12/23 15:18:28;;;;;;;4.28;3.90;;;2.00;99.90;;;;;;5113989;28;20294;-65
2021/12/23 15:20:56;;;;;;;6.50;5.00;;;2.00;99.90;;;;;;5113940;28;20240;-65
2021/12/23 15:23:42;;;;;;;8.55;5.63;;;2.00;99.90;;;;;;5113983;28;20203;-65
2021/12/23 15:26:24;;;;;;;7.13;4.82;;;2.00;99.90;;;;;;5113818;28;20187;-65
2021/12/23 15:29:10;;;;;;;5.97;4.82;;;2.00;99.90;;;;;;5113749;28;20205;-64
2021/12/23 15:31:38;;;;;;;6.68;4.43;;;2.00;99.90;;;;;;5113950;28;20190;-65
2021/12/23 15:34:08;;;;;;;4.32;3.92;;;2.00;99.90;;;;;;5113788;28;20659;-65
2021/12/23 15:36:37;;;;;;;4.38;3.88;;;2.00;99.90;;;;;;5113996;28;20278;-65
2021/12/23 15:39:16;;;;;;;4.45;4.05;;;2.00;99.90;;;;;;5113744;28;20199;-65
2021/12/23 15:41:42;;;;;;;4.05;3.63;;;2.00;99.90;;;;;;5113887;28;20187;-65
2021/12/23 15:44:11;;;;;;;4.35;3.97;;;1.90;99.90;;;;;;5113287;28;20580;-66
2021/12/23 15:46:38;;;;;;;4.65;3.92;;;1.90;99.90;;;;;;5113646;28;20289;-65
2021/12/23 15:49:05;;;;;;;5.18;4.40;;;1.90;99.90;;;;;;5113792;28;20202;-66
2021/12/23 15:51:33;;;;;;;5.82;4.43;;;1.80;99.90;;;;;;5114084;28;20290;-65
2021/12/23 15:54:00;;;;;;;5.68;4.00;;;1.80;99.90;;;;;;5113473;28;20716;-65
2021/12/23 15:56:27;;;;;;;4.90;3.65;;;1.80;99.90;;;;;;5113814;28;20213;-65
2021/12/23 15:58:54;;;;;;;4.53;3.65;;;1.80;99.90;;;;;;5116725;28;20233;-65
2021/12/23 16:01:24;;;;;;;4.18;3.78;;;1.70;99.90;;;;;;5117464;28;20226;-64
2021/12/23 16:03:52;;;;;;;4.25;3.85;;;1.70;99.90;;;;;;5117404;28;20247;-66
2021/12/23 16:09:04;;;;;;;4.15;3.58;;;1.60;99.90;;;;;;5117289;28;20179;-65
2021/12/23 16:11:31;;;;;;;4.25;3.83;;;1.70;99.90;;;;;;5117343;28;20297;-65
2021/12/23 16:13:58;;;;;;;3.85;3.55;;;1.70;99.90;;;;;;5117135;28;20221;-65
2021/12/23 16:16:27;;;;;;;4.10;3.70;;;1.70;99.90;;;;;;5116789;28;20309;-66
2021/12/23 16:18:54;;;;;;;3.70;3.40;;;1.60;99.90;;;;;;5117128;28;20285;-65
2021/12/23 16:21:21;;;;;;;4.07;3.42;;;1.70;99.90;;;;;;5117071;28;20221;-66
2021/12/23 16:23:47;;;;;;;3.38;3.08;;;1.60;99.90;;;;;;5116937;28;20202;-66
2021/12/23 16:26:14;;;;;;;3.47;3.20;;;1.70;99.90;;;;;;5116817;28;20568;-66
2021/12/23 16:28:41;;;;;;;3.53;3.08;;;1.60;99.90;;;;;;5117031;28;20324;-66
2021/12/23 16:31:12;;;;;;;3.03;2.80;;;1.70;99.90;;;;;;5116981;28;20281;-66
2021/12/23 16:33:40;;;;;;;3.17;2.88;;;1.70;99.90;;;;;;5116563;28;20659;-66
2021/12/23 16:36:07;;;;;;;4.25;3.75;;;1.70;99.90;;;;;;5116600;28;20209;-66
2021/12/23 16:38:34;;;;;;;8.18;5.75;;;1.70;99.90;;;;;;5116698;28;20301;-66
2021/12/23 16:41:02;;;;;;;7.68;5.03;;;1.70;99.90;;;;;;5116694;28;20221;-69
2021/12/23 16:43:29;;;;;;;6.68;4.22;;;1.70;99.90;;;;;;5116654;28;20254;-64
2021/12/23 16:45:56;;;;;;;5.72;4.13;;;1.70;99.90;;;;;;5116249;28;20218;-64
2021/12/23 16:48:23;;;;;;;5.75;3.75;;;1.70;99.90;;;;;;5116721;28;20199;-64
2021/12/23 16:50:52;;;;;;;4.93;4.28;;;1.70;99.90;;;;;;5116217;28;20194;-64
2021/12/23 16:53:19;;;;;;;4.25;3.60;;;1.70;99.90;;;;;;5116259;28;20666;-65
2021/12/23 16:58:33;;;;;;;4.75;3.63;;;1.70;99.90;;;;;;5098328;27;20190;-65
2021/12/23 17:01:00;;;;;;;3.80;3.30;;;1.70;99.90;;;;;;5115815;28;20627;-65
2021/12/23 17:03:28;;;;;;;3.63;3.28;;;1.70;99.90;;;;;;5115916;28;20285;-64
2021/12/23 17:05:56;;;;;;;4.40;3.85;;;1.60;99.90;;;;;;5116125;28;20223;-64
2021/12/23 17:08:24;;;;;;;5.47;4.22;;;1.70;99.90;;;;;;5116171;28;20248;-64
2021/12/23 17:10:53;;;;;;;4.90;4.35;;;1.70;99.90;;;;;;5116342;28;20197;-66
2021/12/23 17:13:22;;;;;;;4.95;3.95;;;1.70;99.90;;;;;;5116111;28;20286;-66
2021/12/23 17:15:50;;;;;;;5.43;3.78;;;1.70;99.90;;;;;;5115515;28;20230;-66
2021/12/23 17:18:31;;;;;;;5.47;3.90;;;1.70;99.90;;;;;;5115462;28;20666;-66
2021/12/23 17:23:46;;;;;;;5.40;3.90;;;1.60;99.90;;;;;;5115427;28;20206;-68
2021/12/23 17:26:13;;;;;;;4.78;3.92;;;1.60;99.90;;;;;;5115588;28;20205;-71
2021/12/23 17:28:40;;;;;;;3.83;3.20;;;1.60;99.90;;;;;;5115662;28;20194;-71
2021/12/23 17:31:07;;;;;;;3.60;3.30;;;1.60;99.90;;;;;;5115469;28;20230;-72
2021/12/23 17:33:34;;;;;;;3.90;3.50;;;1.60;99.90;;;;;;5115568;28;20204;-72
2021/12/23 17:36:02;;;;;;;3.78;3.40;;;1.60;99.90;;;;;;5115444;28;20205;-70
2021/12/23 17:38:29;;;;;;;2.83;2.63;;;1.60;99.90;;;;;;5115405;28;20289;-70
2021/12/23 17:40:57;;;;;;;4.35;3.53;;;1.60;99.90;;;;;;5115157;28;20305;-70
2021/12/23 17:43:24;;;;;;;4.22;3.65;;;1.60;99.90;;;;;;5115487;28;20244;-69
2021/12/23 17:45:52;;;;;;;3.72;3.28;;;1.60;99.90;;;;;;5115375;28;20566;-71
2021/12/23 17:48:21;;;;;;;3.13;2.92;;;1.60;99.90;;;;;;5115421;28;20233;-67
2021/12/23 17:50:48;;;;;;;2.83;2.63;;;1.50;99.90;;;;;;5114722;28;20212;-67
2021/12/23 17:53:17;;;;;;;2.72;2.63;;;1.50;99.90;;;;;;5114692;28;20568;-65
2021/12/23 17:55:45;;;;;;;2.80;2.60;;;1.50;99.90;;;;;;5114908;28;20229;-68
2021/12/23 17:58:17;;;;;;;2.78;2.58;;;1.50;99.90;;;;;;5115079;28;20210;-65
2021/12/23 18:00:46;;;;;;;3.58;2.90;;;1.40;99.90;;;;;;5115183;28;20251;-65
2021/12/23 18:03:13;;;;;;;3.55;2.65;;;1.40;99.90;;;;;;5114935;28;20607;-65
2021/12/23 18:05:42;;;;;;;2.45;2.25;;;1.30;99.90;;;;;;5114911;28;20250;-66
2021/12/23 18:08:09;;;;;;;2.67;2.35;;;1.30;99.90;;;;;;5114571;28;20572;-65
2021/12/23 18:10:38;;;;;;;2.80;2.60;;;1.20;99.90;;;;;;5114948;28;20222;-65
2021/12/23 18:13:05;;;;;;;3.22;2.92;;;1.20;99.90;;;;;;5114413;28;20241;-66
2021/12/23 18:15:33;;;;;;;2.88;2.67;;;1.20;99.90;;;;;;5114483;28;20226;-67
2021/12/23 18:18:00;;;;;;;3.63;3.03;;;1.20;99.90;;;;;;5114343;28;20565;-68
2021/12/23 18:20:27;;;;;;;3.17;2.88;;;1.20;99.90;;;;;;5114024;28;20222;-67
2021/12/23 18:22:54;;;;;;;2.70;2.53;;;1.20;99.90;;;;;;5114429;28;20253;-68
2021/12/23 18:25:21;;;;;;;2.63;2.35;;;1.20;99.90;;;;;;5114417;28;20229;-67
2021/12/23 18:27:50;;;;;;;3.08;2.67;;;1.30;99.90;;;;;;5114533;28;20201;-67
2021/12/23 18:30:18;;;;;;;2.60;2.40;;;1.30;99.90;;;;;;5114366;28;20194;-67
2021/12/23 18:32:47;;;;;;;2.78;2.58;;;1.20;99.90;;;;;;5114527;28;20198;-67
2021/12/23 18:35:17;;;;;;;2.42;2.22;;;1.20;99.90;;;;;;5114017;28;20732;-67
2021/12/23 18:37:49;;;;;;;3.15;2.85;;;1.30;99.90;;;;;;5114646;28;20206;-67
2021/12/23 18:40:18;;;;;;;3.25;2.95;;;1.30;99.90;;;;;;5114339;28;20211;-67
2021/12/23 18:42:51;;;;;;;2.60;2.45;;;1.30;99.90;;;;;;5114288;28;20627;-67
2021/12/23 18:45:22;;;;;;;2.47;2.38;;;1.30;99.90;;;;;;5114278;28;20276;-67
2021/12/23 18:47:49;;;;;;;2.90;2.70;;;1.30;99.90;;;;;;5114446;28;20668;-70
2021/12/23 18:50:17;;;;;;;3.05;2.75;;;1.30;99.90;;;;;;5114356;28;20195;-70
2021/12/23 18:52:44;;;;;;;4.22;3.22;;;1.40;99.90;;;;;;5114194;28;20209;-69
2021/12/23 18:55:11;;;;;;;4.30;3.78;;;1.40;99.90;;;;;;5114122;28;20253;-69
2021/12/23 18:57:39;;;;;;;3.58;3.33;;;1.40;99.90;;;;;;5114207;28;20194;-70
2021/12/23 19:00:17;;;;;;;3.80;3.50;;;1.40;99.90;;;;;;5114194;28;20209;-69
2021/12/23 19:03:01;;;;;;;2.95;2.72;;;1.50;99.90;;;;;;5113996;28;20179;-69
2021/12/23 19:05:31;;;;;;;3.33;3.08;;;1.50;99.90;;;;;;5114055;28;20226;-69
2021/12/23 19:07:59;;;;;;;2.78;2.58;;;1.50;99.90;;;;;;5114016;28;20193;-69
2021/12/23 19:10:26;;;;;;;4.05;3.63;;;1.60;99.90;;;;;;5114052;28;20190;-69
2021/12/23 19:12:53;;;;;;;3.70;3.35;;;1.60;99.90;;;;;;5113905;28;20198;-69
2021/12/23 19:15:20;;;;;;;3.35;3.05;;;1.60;99.90;;;;;;5113359;28;20226;-70
2021/12/23 19:17:48;;;;;;;3.22;3.03;;;1.80;99.90;;;;;;5113826;28;20183;-69
2021/12/23 19:20:17;;;;;;;3.08;2.55;;;1.70;99.90;;;;;;5113691;28;20230;-69
2021/12/23 19:22:44;;;;;;;3.65;3.15;;;1.70;99.90;;;;;;5113770;28;20396;-69
2021/12/23 19:25:12;;;;;;;4.28;3.88;;;1.70;99.90;;;;;;5113413;28;20705;-69
2021/12/23 19:27:39;;;;;;;8.48;6.22;;;1.60;99.90;;;;;;5113914;28;20567;-69
2021/12/23 19:30:09;;;;;;;10.60;6.65;;;1.70;99.90;;;;;;5113559;28;20637;-68
2021/12/23 19:32:36;;;;;;;8.43;6.25;;;1.70;99.90;;;;;;5116305;28;20187;-68
2021/12/23 19:35:07;;;;;;;10.63;6.18;;;1.80;99.90;;;;;;5117316;28;20215;-68
2021/12/23 19:37:34;;;;;;;9.43;6.72;;;1.80;99.90;;;;;;5117755;28;20198;-68
2021/12/23 19:40:01;;;;;;;12.20;7.20;;;1.80;99.90;;;;;;5117563;28;20206;-68
2021/12/23 19:42:27;;;;;;;14.80;7.70;;;1.90;99.90;;;;;;5117497;28;20214;-68
2021/12/23 19:44:56;;;;;;;11.98;7.47;;;2.00;99.90;;;;;;5116994;28;20580;-68
2021/12/23 19:47:23;;;;;;;9.73;6.72;;;2.10;99.90;;;;;;5117306;28;20195;-68
2021/12/23 19:49:50;;;;;;;9.82;6.40;;;2.20;99.90;;;;;;5117270;28;20205;-68
2021/12/23 19:52:18;;;;;;;9.98;6.40;;;2.30;99.90;;;;;;5117255;28;20290;-68
2021/12/23 19:54:45;;;;;;;9.23;6.18;;;2.40;99.90;;;;;;5117160;28;20309;-68
2021/12/23 19:57:12;;;;;;;9.10;6.50;;;2.50;99.90;;;;;;5117121;28;20293;-69
2021/12/23 19:59:39;;;;;;;7.97;5.53;;;2.50;99.90;;;;;;5117109;28;20195;-69
2021/12/23 20:02:06;;;;;;;8.38;5.97;;;2.60;99.90;;;;;;5116787;28;20693;-69
2021/12/23 20:04:33;;;;;;;7.38;5.35;;;2.60;99.90;;;;;;5116694;28;20767;-69
2021/12/23 20:06:59;;;;;;;8.85;6.18;;;2.60;99.90;;;;;;5116794;28;20662;-69
2021/12/23 20:09:28;;;;;;;6.85;5.50;;;2.70;99.90;;;;;;5117133;28;20205;-69
2021/12/23 20:11:54;;;;;;;6.93;5.38;;;2.80;99.90;;;;;;5116832;28;20205;-70
2021/12/23 20:14:21;;;;;;;7.43;5.47;;;2.80;99.90;;;;;;5116631;28;20261;-71
2021/12/23 20:16:48;;;;;;;6.45;5.00;;;2.80;99.90;;;;;;5116768;28;20238;-70